»·PEaware :: N731NE KPOC-P20

N731NE :: KPOC-P20

FLIGHT INFORMATION

Flight Status: Arrived
Operator: Privately registered:
United States
More flights under this callsign
Pilot: Larry K. (35036)
Aircraft: BEECH AIRCRAFT BONANZA
(BE36)
More flights by this aircraft type
Origin: KPOC Brackett
United States
Destination: P20 Avi Suquilla
United States
More flights between these airports :: More routes between these airports
Route: PRADO V16 PDZ V186 NIKKL TRM TNP V264 PKE
File this flight plan on PilotEdge
Remarks: ZLA alphabet 16
Altitude:
(Current/Filed)
14,000ft
Speed:
(Current/Filed)
150kts
Departed: 10-Jun-23 11:32 AM
Arrived: 10-Jun-23 12:54 PM
Distance/Time
Traveled:
174nm/1:22
Distance/Time
To Go:
Arrived

Flight Plot

Page will automatically refresh every two minutes.

Flight plan parsing failed; only flown route is shown


Map Options




Map Legend


Flown Route
Filed Route
Departure Airport
Arrival Airport
Navaid (VOR, NDB)
Fix

Horizontal Profiles

Position Reports

Time Latitude Longitude Heading Altitude Ground
Speed
10-Jun-23 10:47 34.090200 -117.783480 38 990ft 0kts
10-Jun-23 10:48 34.090200 -117.783480 38 990ft 0kts
10-Jun-23 10:49 34.090200 -117.783480 38 990ft 0kts
10-Jun-23 10:50 34.090200 -117.783480 38 990ft 0kts
10-Jun-23 10:51 34.090200 -117.783480 38 990ft 0kts
10-Jun-23 10:52 34.090200 -117.783480 38 990ft 0kts
10-Jun-23 10:53 34.090200 -117.783480 38 990ft 0kts
10-Jun-23 10:54 34.090200 -117.783480 38 990ft 0kts
10-Jun-23 10:55 34.090200 -117.783480 38 990ft 0kts
10-Jun-23 10:56 34.090200 -117.783480 38 990ft 0kts
10-Jun-23 10:57 34.090200 -117.783480 38 990ft 0kts
10-Jun-23 10:58 34.090200 -117.783480 38 990ft 0kts
10-Jun-23 10:59 34.090200 -117.783480 38 990ft 0kts
10-Jun-23 11:00 34.090200 -117.783480 38 990ft 0kts
10-Jun-23 11:01 34.090200 -117.783480 38 990ft 0kts
10-Jun-23 11:02 34.090200 -117.783480 38 990ft 0kts
10-Jun-23 11:03 34.090200 -117.783480 38 990ft 0kts
10-Jun-23 11:04 34.090200 -117.783480 38 990ft 0kts
10-Jun-23 11:05 34.090200 -117.783480 38 990ft 0kts
10-Jun-23 11:06 34.090200 -117.783480 38 990ft 0kts
10-Jun-23 11:07 34.090200 -117.783480 38 990ft 0kts
10-Jun-23 11:08 34.090200 -117.783480 38 990ft 0kts
10-Jun-23 11:09 34.090200 -117.783480 38 990ft 0kts
10-Jun-23 11:10 34.090200 -117.783480 38 990ft 0kts
10-Jun-23 11:11 34.090200 -117.783480 38 990ft 0kts
10-Jun-23 11:12 34.090200 -117.783480 38 990ft 0kts
10-Jun-23 11:13 34.090200 -117.783480 38 990ft 0kts
10-Jun-23 11:14 34.090200 -117.783480 38 990ft 0kts
10-Jun-23 11:15 34.090200 -117.783480 38 990ft 0kts
10-Jun-23 11:16 34.090200 -117.783480 38 990ft 0kts
10-Jun-23 11:17 34.090200 -117.783480 38 990ft 0kts
10-Jun-23 11:18 34.090200 -117.783480 38 990ft 0kts
10-Jun-23 11:19 34.090200 -117.783480 38 990ft 0kts
10-Jun-23 11:20 34.090200 -117.783480 38 990ft 0kts
10-Jun-23 11:21 34.090200 -117.783480 38 990ft 0kts
10-Jun-23 11:22 34.090200 -117.783480 38 990ft 0kts
10-Jun-23 11:23 34.090200 -117.783480 38 990ft 0kts
10-Jun-23 11:24 34.090574 -117.780622 94 998ft 21kts
10-Jun-23 11:25 34.090260 -117.777373 74 1007ft 0kts
10-Jun-23 11:26 34.090107 -117.774841 40 1014ft 0kts
10-Jun-23 11:27 34.090107 -117.774841 40 1014ft 0kts
10-Jun-23 11:28 34.090107 -117.774841 40 1014ft 0kts
10-Jun-23 11:29 34.090107 -117.774841 40 1014ft 0kts
10-Jun-23 11:30 34.090427 -117.774678 5 1014ft 0kts
10-Jun-23 11:31 34.091107 -117.777737 273 1004ft 66kts
10-Jun-23 11:32 34.092041 -117.810357 273 1799ft 115kts
10-Jun-23 11:33 34.074271 -117.831680 152 2638ft 138kts
10-Jun-23 11:34 34.040923 -117.806220 148 3434ft 144kts
10-Jun-23 11:35 34.007200 -117.779124 149 4237ft 146kts
10-Jun-23 11:36 33.982087 -117.744512 103 4999ft 145kts
10-Jun-23 11:37 33.970078 -117.699773 111 5782ft 134kts
10-Jun-23 11:38 33.956947 -117.658854 112 6598ft 127kts
10-Jun-23 11:39 33.945895 -117.619285 112 7347ft 122kts
10-Jun-23 11:40 33.933390 -117.580763 111 8116ft 124kts
10-Jun-23 11:41 33.921861 -117.541008 115 8889ft 131kts
10-Jun-23 11:42 33.892389 -117.508247 145 8896ft 156kts
10-Jun-23 11:43 33.856065 -117.477954 146 8889ft 161kts
10-Jun-23 11:44 33.822113 -117.449569 145 9620ft 138kts
10-Jun-23 11:45 33.791858 -117.424067 146 10356ft 129kts
10-Jun-23 11:46 33.763024 -117.399721 145 11120ft 125kts
10-Jun-23 11:47 33.735054 -117.376077 138 11932ft 122kts
10-Jun-23 11:48 33.727858 -117.336625 100 12735ft 121kts
10-Jun-23 11:49 33.724211 -117.291631 100 12951ft 147kts
10-Jun-23 11:50 33.719880 -117.240402 99 12976ft 158kts
10-Jun-23 11:51 33.715599 -117.187525 100 12967ft 160kts
10-Jun-23 11:52 33.711332 -117.134344 99 12971ft 160kts
10-Jun-23 11:53 33.707128 -117.081163 99 12972ft 160kts
10-Jun-23 11:54 33.702934 -117.028019 99 12974ft 160kts
10-Jun-23 11:55 33.698516 -116.974473 99 12974ft 161kts
10-Jun-23 11:56 33.694085 -116.921231 100 13038ft 156kts
10-Jun-23 11:57 33.689678 -116.868978 100 13094ft 156kts
10-Jun-23 11:58 33.685099 -116.816833 100 13117ft 159kts
10-Jun-23 11:59 33.680759 -116.763778 100 13088ft 159kts
10-Jun-23 12:00 33.675999 -116.710143 101 13052ft 164kts
10-Jun-23 12:01 33.671454 -116.654998 101 13021ft 165kts
10-Jun-23 12:02 33.667676 -116.611652 101 13019ft 164kts
10-Jun-23 12:03 33.677383 -116.566815 60 13007ft 173kts
10-Jun-23 12:04 33.703939 -116.519488 61 12993ft 169kts
10-Jun-23 12:05 33.729793 -116.471984 61 13019ft 171kts
10-Jun-23 12:06 33.755763 -116.424920 61 13003ft 168kts
10-Jun-23 12:07 33.781871 -116.377486 60 13022ft 171kts
10-Jun-23 12:08 33.808233 -116.329553 60 13013ft 171kts
10-Jun-23 12:09 33.834097 -116.282131 61 12998ft 170kts
10-Jun-23 12:10 33.860376 -116.234169 60 12995ft 172kts
10-Jun-23 12:11 33.886781 -116.185739 60 12983ft 173kts
10-Jun-23 12:12 33.913310 -116.137173 60 12977ft 173kts
10-Jun-23 12:13 33.939421 -116.088427 62 12969ft 173kts
10-Jun-23 12:14 33.965914 -116.039876 61 12972ft 173kts
10-Jun-23 12:15 33.992203 -115.991070 61 12981ft 173kts
10-Jun-23 12:16 34.018823 -115.942097 61 12924ft 176kts
10-Jun-23 12:17 34.045687 -115.893087 60 12890ft 174kts
10-Jun-23 12:18 34.072044 -115.844392 60 12886ft 173kts
10-Jun-23 12:19 34.098249 -115.795833 61 12860ft 172kts
10-Jun-23 12:20 34.111678 -115.744917 95 12851ft 163kts
10-Jun-23 12:21 34.111739 -115.690240 94 12844ft 162kts
10-Jun-23 12:22 34.111505 -115.635750 95 12847ft 163kts
10-Jun-23 12:23 34.111167 -115.581111 95 12843ft 163kts
10-Jun-23 12:24 34.110796 -115.526296 95 12838ft 163kts
10-Jun-23 12:25 34.110388 -115.471225 95 12844ft 163kts
10-Jun-23 12:26 34.109996 -115.416483 95 12834ft 163kts
10-Jun-23 12:27 34.109544 -115.361834 95 12835ft 163kts
10-Jun-23 12:29 34.109081 -115.307227 95 12826ft 162kts
10-Jun-23 12:30 34.108542 -115.252396 95 12674ft 171kts
10-Jun-23 12:31 34.107963 -115.193494 95 12175ft 178kts
10-Jun-23 12:32 34.107398 -115.133497 95 11678ft 176kts
10-Jun-23 12:33 34.106784 -115.075740 94 10773ft 170kts
10-Jun-23 12:34 34.106175 -115.019423 94 9832ft 168kts
10-Jun-23 12:35 34.105537 -114.963741 94 8838ft 166kts
10-Jun-23 12:36 34.104889 -114.907694 94 7821ft 165kts
10-Jun-23 12:37 34.104278 -114.853524 95 7120ft 149kts
10-Jun-23 12:38 34.103659 -114.805695 95 6989ft 138kts
10-Jun-23 12:39 34.103092 -114.760994 95 7030ft 130kts
10-Jun-23 12:40 34.102510 -114.717985 95 7066ft 127kts
10-Jun-23 12:41 34.102754 -114.675408 86 7057ft 128kts
10-Jun-23 12:42 34.107759 -114.632842 86 7022ft 127kts
10-Jun-23 12:43 34.114403 -114.591311 82 6900ft 132kts
10-Jun-23 12:44 34.121784 -114.547884 85 6541ft 141kts
10-Jun-23 12:45 34.127952 -114.499790 84 5912ft 146kts
10-Jun-23 12:46 34.133704 -114.449773 88 5032ft 154kts
10-Jun-23 12:47 34.131865 -114.398551 94 3832ft 153kts
10-Jun-23 12:48 34.137953 -114.347712 81 2610ft 156kts
10-Jun-23 12:49 34.146248 -114.298704 94 1939ft 122kts
10-Jun-23 12:50 34.145657 -114.261313 109 1707ft 107kts
10-Jun-23 12:51 34.133292 -114.251058 305 1704ft 119kts
10-Jun-23 12:52 34.160750 -114.238750 5 1301ft 110kts
10-Jun-23 12:53 34.163484 -114.259872 201 627ft 85kts
10-Jun-23 12:54 34.151112 -114.267567 294 451ft 10kts
10-Jun-23 12:54 34.151689 -114.268986 296 451ft 17kts
10-Jun-23 12:56 34.153173 -114.271885 3 451ft 6kts
10-Jun-23 12:57 34.153316 -114.271836 29 450ft 0kts
10-Jun-23 12:58 34.153316 -114.271836 29 450ft 0kts
10-Jun-23 12:59 34.153316 -114.271836 29 450ft 0kts
10-Jun-23 13:00 34.153316 -114.271836 29 450ft 0kts
10-Jun-23 13:01 34.153316 -114.271836 29 450ft 0kts
10-Jun-23 13:01 34.153316 -114.271836 29 450ft 0kts
10-Jun-23 13:02 34.153316 -114.271836 29 450ft 0kts
10-Jun-23 13:03 34.153316 -114.271836 29 450ft 0kts
10-Jun-23 13:05 34.153316 -114.271836 28 452ft 0kts
10-Jun-23 13:06 34.153316 -114.271836 28 452ft 0kts
10-Jun-23 13:06 34.153316 -114.271836 28 452ft 0kts
10-Jun-23 13:07 34.153316 -114.271836 28 452ft 0kts
10-Jun-23 13:08 34.153316 -114.271836 28 452ft 0kts

Navigation Log

Ident Type
Flight plan parsing failed, navigation log unavailable